Time;durP1;ratioP1;P1;durP2;ratioP2;P2;SDS_P1;SDS_P2;PMS_P1;PMS_P2;Temp;Humidity;BMP_temperature;BMP_pressure;BME280_temperature;BME280_humidity;BME280_pressure;Samples;Min_cycle;Max_cycle;Signal;HPM_P1;HPM_P2
2022/04/08 00:00:20;;;;;;;2.25;1.27;;;;;;;10.84;nan;96819.31;4973643;28;20058;-59
2022/04/08 00:02:46;;;;;;;2.57;1.30;;;;;;;10.86;nan;96803.88;4970628;28;20042;-59
2022/04/08 00:05:11;;;;;;;1.00;1.00;;;;;;;11.19;nan;96820.16;4970071;28;20034;-59
2022/04/08 00:07:37;;;;;;;0.73;0.60;;;;;;;11.58;nan;96847.25;4970192;28;20089;-59
2022/04/08 00:10:03;;;;;;;0.93;0.88;;;;;;;11.76;nan;96823.19;4973542;28;20044;-59
2022/04/08 00:12:29;;;;;;;2.25;0.70;;;;;;;11.75;nan;96830.06;4972476;28;20361;-59
2022/04/08 00:14:55;;;;;;;0.55;0.50;;;;;;;11.77;nan;96837.69;4972121;28;20248;-60
2022/04/08 00:17:20;;;;;;;1.38;0.88;;;;;;;11.70;nan;96819.19;4970443;28;20397;-60
2022/04/08 00:19:45;;;;;;;0.50;0.50;;;;;;;11.63;nan;96828.09;4971876;28;20079;-60
2022/04/08 00:22:11;;;;;;;0.50;0.50;;;;;;;11.43;nan;96815.50;4968634;28;20373;-61
2022/04/08 00:24:36;;;;;;;0.50;0.50;;;;;;;11.47;nan;96847.78;4970473;28;20068;-60
2022/04/08 00:27:02;;;;;;;0.43;0.43;;;;;;;11.42;nan;96830.06;4970947;28;20121;-60
2022/04/08 00:29:27;;;;;;;0.60;0.60;;;;;;;11.46;nan;96852.06;4972674;28;20446;-59
2022/04/08 00:31:57;;;;;;;0.65;0.65;;;;;;;11.31;nan;96854.59;4969484;28;20030;-59
2022/04/08 00:34:27;;;;;;;0.50;0.50;;;;;;;11.36;nan;96880.84;4968821;28;20478;-61
2022/04/08 00:36:54;;;;;;;0.50;0.50;;;;;;;11.26;nan;96869.38;4970162;28;20892;-60
2022/04/08 00:39:21;;;;;;;0.70;0.70;;;;;;;11.01;nan;96854.38;4971145;28;20038;-60
2022/04/08 00:41:46;;;;;;;0.70;0.70;;;;;;;11.09;nan;96885.63;4969320;28;20030;-61
2022/04/08 00:44:12;;;;;;;2.13;0.50;;;;;;;11.11;nan;96890.69;4970040;28;20064;-60
2022/04/08 00:46:40;;;;;;;0.63;0.57;;;;;;;11.05;nan;96894.38;4972774;28;20042;-59
2022/04/08 00:49:06;;;;;;;1.27;1.17;;;;;;;11.05;nan;96888.41;4969910;28;20035;-60
2022/04/08 00:51:33;;;;;;;0.40;0.40;;;;;;;11.09;nan;96900.16;4968829;28;20035;-59
2022/04/08 00:53:59;;;;;;;2.03;0.80;;;;;;;10.94;nan;96879.50;4971270;28;20432;-60
2022/04/08 00:56:28;;;;;;;0.55;0.45;;;;;;;10.97;nan;96910.13;4972611;28;20449;-59
2022/04/08 00:58:54;;;;;;;0.40;0.40;;;;;;;10.98;nan;96937.44;4969920;28;20030;-59
2022/04/08 01:01:20;;;;;;;0.30;0.30;;;;;;;10.94;nan;96932.53;4967839;28;20109;-59
2022/04/08 01:03:46;;;;;;;0.40;0.40;;;;;;;10.78;nan;96914.44;4970461;28;20034;-59
2022/04/08 01:06:11;;;;;;;0.37;0.37;;;;;;;10.84;nan;96933.84;4970911;28;20035;-59
2022/04/08 01:08:39;;;;;;;0.47;0.47;;;;;;;10.76;nan;96943.63;4972594;28;20030;-59
2022/04/08 01:11:04;;;;;;;0.40;0.40;;;;;;;10.69;nan;96955.91;4972098;28;20088;-58
2022/04/08 01:13:30;;;;;;;0.87;0.50;;;;;;;10.66;nan;96956.03;4972238;28;20034;-58
2022/04/08 01:15:55;;;;;;;0.40;0.40;;;;;;;10.57;nan;96946.22;4972415;28;20049;-58
2022/04/08 01:18:21;;;;;;;0.50;0.50;;;;;;;10.50;nan;96939.72;4970075;28;20041;-59
2022/04/08 01:20:46;;;;;;;0.40;0.40;;;;;;;10.41;nan;96940.13;4967419;28;20034;-60
2022/04/08 01:23:16;;;;;;;2.37;0.60;;;;;;;10.33;nan;96968.66;4971230;28;20077;-59
2022/04/08 01:25:42;;;;;;;0.50;0.50;;;;;;;10.24;nan;96963.09;4972692;28;20884;-60
2022/04/08 01:28:07;;;;;;;0.40;0.40;;;;;;;10.20;nan;96982.06;4969132;28;20037;-59
2022/04/08 01:30:32;;;;;;;0.50;0.50;;;;;;;10.18;nan;96996.69;4969303;28;20046;-60
2022/04/08 01:32:58;;;;;;;0.90;0.60;;;;;;;10.14;nan;97013.03;4972776;28;20056;-60
2022/04/08 01:35:23;;;;;;;2.00;0.80;;;;;;;10.00;nan;97040.06;4973012;28;20047;-59
2022/04/08 01:37:49;;;;;;;0.80;0.60;;;;;;;9.88;nan;97030.34;4969163;28;20393;-59
2022/04/08 01:40:14;;;;;;;0.50;0.50;;;;;;;9.84;nan;97053.56;4970274;28;20559;-62
2022/04/08 01:42:40;;;;;;;0.70;0.53;;;;;;;9.66;nan;97056.88;4972563;28;20038;-59
2022/04/08 01:45:07;;;;;;;0.60;0.60;;;;;;;9.62;nan;97066.41;4973255;28;20041;-59
2022/04/08 01:47:33;;;;;;;1.50;0.50;;;;;;;9.35;nan;97024.00;4969831;28;20027;-60
2022/04/08 01:49:59;;;;;;;1.27;0.80;;;;;;;9.28;nan;97043.91;4973304;28;20026;-58
2022/04/08 01:52:24;;;;;;;0.60;0.60;;;;;;;9.23;nan;97055.19;4975509;28;20663;-59
2022/04/08 01:54:49;;;;;;;1.33;0.60;;;;;;;9.11;nan;97056.50;4974433;28;20066;-60
2022/04/08 01:57:17;;;;;;;1.70;0.90;;;;;;;8.99;nan;97024.56;4972150;28;20042;-60
2022/04/08 01:59:44;;;;;;;1.13;1.00;;;;;;;8.85;nan;97031.09;4974533;28;20053;-61
2022/04/08 02:02:09;;;;;;;1.80;1.53;;;;;;;8.85;nan;97043.88;4976012;28;20050;-59
2022/04/08 02:04:35;;;;;;;2.77;0.90;;;;;;;8.75;nan;97084.25;4974328;28;20034;-61
2022/04/08 02:07:02;;;;;;;4.40;2.00;;;;;;;8.68;nan;97055.56;4973179;28;20034;-57
2022/04/08 02:09:27;;;;;;;2.37;1.10;;;;;;;8.66;nan;97048.81;4975897;28;20492;-60
2022/04/08 02:11:53;;;;;;;1.87;1.03;;;;;;;8.56;nan;97070.50;4974652;28;20031;-60
2022/04/08 02:14:18;;;;;;;2.30;0.90;;;;;;;8.55;nan;97040.72;4974314;28;20065;-60
2022/04/08 02:16:44;;;;;;;3.57;1.20;;;;;;;8.41;nan;97051.44;4972142;28;20520;-59
2022/04/08 02:19:09;;;;;;;1.13;0.90;;;;;;;8.50;nan;97075.81;4975279;28;20035;-59
2022/04/08 02:21:35;;;;;;;3.43;1.00;;;;;;;8.40;nan;97082.16;4976202;28;20378;-60
2022/04/08 02:24:03;;;;;;;1.67;0.90;;;;;;;8.47;nan;97116.78;4972019;28;20404;-60
2022/04/08 02:26:29;;;;;;;2.33;0.77;;;;;;;8.46;nan;97121.06;4972674;28;20034;-59
2022/04/08 02:28:54;;;;;;;1.13;1.03;;;;;;;8.60;nan;97141.84;4976258;28;20466;-60
2022/04/08 02:31:20;;;;;;;2.43;0.90;;;;;;;8.62;nan;97127.28;4975216;28;20840;-58
2022/04/08 02:33:45;;;;;;;2.67;0.90;;;;;;;8.74;nan;97130.31;4971288;28;20452;-59
2022/04/08 02:36:11;;;;;;;2.00;0.80;;;;;;;8.73;nan;97100.53;4972963;28;20049;-59
2022/04/08 02:38:36;;;;;;;3.10;0.87;;;;;;;8.78;nan;97079.06;4974080;28;20030;-60
2022/04/08 02:41:02;;;;;;;4.43;1.07;;;;;;;8.71;nan;97103.97;4972354;28;20125;-60
2022/04/08 02:43:27;;;;;;;3.10;0.90;;;;;;;8.72;nan;97138.03;4971823;28;20405;-60
2022/04/08 02:45:53;;;;;;;1.20;0.97;;;;;;;8.65;nan;97118.69;4972520;28;20449;-58
2022/04/08 02:48:18;;;;;;;0.97;0.87;;;;;;;8.64;nan;97122.97;4973611;28;20575;-60
2022/04/08 02:50:44;;;;;;;4.83;2.17;;;;;;;8.60;nan;97144.41;4966753;28;20413;-62
2022/04/08 02:53:10;;;;;;;4.00;1.50;;;;;;;8.43;nan;97128.00;4969984;28;20227;-59
2022/04/08 02:55:35;;;;;;;6.30;1.33;;;;;;;8.46;nan;97145.75;4971785;28;20098;-61
2022/04/08 02:58:01;;;;;;;4.00;1.53;;;;;;;8.42;nan;97145.03;4975250;28;20385;-60
2022/04/08 03:00:27;;;;;;;3.63;1.20;;;;;;;8.28;nan;97142.06;4971114;28;20049;-61
2022/04/08 03:02:53;;;;;;;2.57;1.10;;;;;;;8.37;nan;97158.84;4969600;28;20034;-62
2022/04/08 03:05:18;;;;;;;1.37;0.90;;;;;;;8.19;nan;97140.66;4970610;28;20043;-61
2022/04/08 03:07:44;;;;;;;4.13;1.03;;;;;;;8.29;nan;97146.34;4972529;28;20018;-61
2022/04/08 03:10:10;;;;;;;4.63;1.27;;;;;;;8.14;nan;97144.28;4970895;28;20069;-60
2022/04/08 03:12:36;;;;;;;4.40;1.27;;;;;;;8.20;nan;97146.59;4969705;28;20065;-60
2022/04/08 03:15:03;;;;;;;3.83;1.13;;;;;;;8.15;nan;97138.25;4971963;28;20477;-60
2022/04/08 03:17:28;;;;;;;2.03;1.30;;;;;;;8.02;nan;97137.03;4972693;28;20205;-60
2022/04/08 03:19:56;;;;;;;4.00;1.00;;;;;;;8.09;nan;97136.78;4972879;28;20031;-61
2022/04/08 03:22:21;;;;;;;2.20;1.40;;;;;;;8.03;nan;97126.75;4970380;28;20042;-61
2022/04/08 03:24:47;;;;;;;2.43;1.13;;;;;;;7.98;nan;97128.59;4973237;28;20042;-64
2022/04/08 03:27:13;;;;;;;3.67;1.30;;;;;;;8.01;nan;97148.94;4973937;28;20038;-56
2022/04/08 03:29:39;;;;;;;4.43;1.50;;;;;;;7.92;nan;97161.16;4971702;28;20113;-62
2022/04/08 03:32:05;;;;;;;2.47;1.13;;;;;;;7.87;nan;97160.47;4969190;28;20030;-64
2022/04/08 03:34:31;;;;;;;2.87;0.87;;;;;;;7.95;nan;97184.84;4974030;28;20484;-61
2022/04/08 03:36:57;;;;;;;2.40;0.90;;;;;;;8.00;nan;97212.78;4974187;28;20057;-61
2022/04/08 03:39:22;;;;;;;1.53;1.37;;;;;;;7.95;nan;97181.47;4971633;28;20414;-60
2022/04/08 03:41:48;;;;;;;0.90;0.80;;;;;;;7.98;nan;97169.44;4968577;28;20560;-60
2022/04/08 03:44:14;;;;;;;3.27;0.97;;;;;;;8.06;nan;97138.59;4971172;28;20027;-61
2022/04/08 03:46:41;;;;;;;2.20;1.97;;;;;;;7.96;nan;97176.31;4971526;28;20027;-61
2022/04/08 03:49:14;;;;;;;1.00;1.00;;;;;;;8.03;nan;97194.81;4968576;28;20535;-60
2022/04/08 03:51:46;;;;;;;2.13;0.80;;;;;;;8.02;nan;97175.31;4967945;28;20424;-60
2022/04/08 03:54:13;;;;;;;0.80;0.80;;;;;;;8.05;nan;97188.78;4971168;28;20034;-60
2022/04/08 03:56:41;;;;;;;2.67;0.93;;;;;;;7.89;nan;97174.88;4970801;28;20045;-60
2022/04/08 03:59:08;;;;;;;2.10;1.10;;;;;;;8.01;nan;97165.97;4968588;28;20061;-60
2022/04/08 04:01:34;;;;;;;1.97;1.20;;;;;;;7.88;nan;97142.56;4970568;28;20031;-61
2022/04/08 04:03:59;;;;;;;2.40;1.00;;;;;;;7.95;nan;97164.44;4972641;28;20045;-63
2022/04/08 04:06:25;;;;;;;0.90;0.90;;;;;;;8.09;nan;97198.03;4971747;28;20158;-61
2022/04/08 04:08:50;;;;;;;4.33;1.37;;;;;;;8.02;nan;97198.28;4969894;28;20035;-62
2022/04/08 04:11:16;;;;;;;3.23;1.10;;;;;;;7.97;nan;97188.22;4971825;28;20030;-60
2022/04/08 04:13:42;;;;;;;1.53;1.00;;;;;;;8.01;nan;97211.91;4973017;28;20030;-60
2022/04/08 04:16:08;;;;;;;3.57;1.20;;;;;;;7.94;nan;97218.91;4971137;28;20130;-61
2022/04/08 04:18:34;;;;;;;1.63;0.83;;;;;;;7.87;nan;97196.19;4968619;28;20039;-60
2022/04/08 04:20:59;;;;;;;0.80;0.70;;;;;;;7.93;nan;97211.31;4971507;28;20512;-60
2022/04/08 04:23:25;;;;;;;2.57;1.30;;;;;;;7.88;nan;97187.66;4971746;28;20058;-61
2022/04/08 04:25:50;;;;;;;3.13;1.40;;;;;;;7.85;nan;97197.97;4970152;28;20569;-60
2022/04/08 04:28:16;;;;;;;3.13;1.00;;;;;;;7.77;nan;97188.81;4969992;28;20901;-61
2022/04/08 04:30:41;;;;;;;3.10;1.07;;;;;;;7.79;nan;97217.69;4973839;28;20472;-60
2022/04/08 04:33:07;;;;;;;1.00;0.90;;;;;;;7.78;nan;97222.81;4972509;28;20026;-60
2022/04/08 04:35:37;;;;;;;5.13;1.10;;;;;;;7.81;nan;97230.38;4971233;28;20045;-61
2022/04/08 04:38:02;;;;;;;1.17;1.07;;;;;;;7.71;nan;97226.44;4968837;28;20030;-61
2022/04/08 04:40:28;;;;;;;1.90;0.97;;;;;;;7.73;nan;97230.59;4973922;28;20042;-60
2022/04/08 04:42:55;;;;;;;4.20;1.60;;;;;;;7.80;nan;97256.78;4974091;28;20742;-60
2022/04/08 04:45:21;;;;;;;3.13;1.77;;;;;;;7.85;nan;97260.00;4971677;28;20038;-61
2022/04/08 04:47:46;;;;;;;2.93;0.90;;;;;;;7.84;nan;97258.38;4968694;28;20652;-61
2022/04/08 04:50:12;;;;;;;2.10;1.40;;;;;;;7.90;nan;97265.81;4976811;28;20404;-61
2022/04/08 04:52:37;;;;;;;1.07;0.97;;;;;;;7.84;nan;97263.47;4973256;28;20030;-62
2022/04/08 04:55:04;;;;;;;1.67;1.57;;;;;;;7.82;nan;97275.41;4970616;28;20041;-60
2022/04/08 04:57:30;;;;;;;0.80;0.77;;;;;;;7.79;nan;97281.47;4971859;28;20045;-62
2022/04/08 04:59:55;;;;;;;2.27;1.23;;;;;;;7.84;nan;97283.88;4977109;28;21002;-60
2022/04/08 05:02:21;;;;;;;1.73;0.97;;;;;;;7.95;nan;97292.03;4975425;28;20778;-59
2022/04/08 05:04:46;;;;;;;1.80;0.80;;;;;;;7.88;nan;97277.81;4974209;28;20493;-61
2022/04/08 05:07:11;;;;;;;1.57;0.97;;;;;;;8.09;nan;97289.91;4973660;28;20470;-64
2022/04/08 05:09:40;;;;;;;1.00;1.00;;;;;;;8.18;nan;97289.63;4975239;28;20039;-65
2022/04/08 05:12:07;;;;;;;1.90;1.47;;;;;;;8.24;nan;97307.28;4976394;28;20070;-68
2022/04/08 05:14:33;;;;;;;1.27;0.83;;;;;;;8.17;nan;97299.88;4973101;28;20065;-62
2022/04/08 05:16:58;;;;;;;0.90;0.90;;;;;;;8.10;nan;97311.16;4972696;28;20110;-61
2022/04/08 05:19:24;;;;;;;1.17;0.90;;;;;;;8.14;nan;97334.00;4971509;28;20404;-59
2022/04/08 05:21:52;;;;;;;0.80;0.80;;;;;;;8.07;nan;97319.72;4970237;28;20035;-62
2022/04/08 05:24:18;;;;;;;1.23;0.80;;;;;;;8.05;nan;97326.63;4975126;28;20064;-61
2022/04/08 05:26:43;;;;;;;2.40;0.80;;;;;;;8.00;nan;97325.91;4978080;28;20041;-62
2022/04/08 05:29:09;;;;;;;3.03;0.90;;;;;;;7.95;nan;97319.25;4975009;28;20038;-60
2022/04/08 05:31:34;;;;;;;1.27;0.90;;;;;;;8.20;nan;97346.56;4973253;28;20712;-61
2022/04/08 05:34:00;;;;;;;1.07;0.87;;;;;;;8.31;nan;97351.38;4974546;28;20464;-61
2022/04/08 05:36:25;;;;;;;1.60;0.87;;;;;;;8.39;nan;97366.47;4974873;28;20031;-60
2022/04/08 05:38:50;;;;;;;1.00;0.90;;;;;;;8.41;nan;97359.59;4975119;28;20541;-60
2022/04/08 05:41:16;;;;;;;2.97;1.17;;;;;;;8.49;nan;97368.69;4972428;28;20203;-61
2022/04/08 05:43:44;;;;;;;0.73;0.73;;;;;;;8.47;nan;97387.50;4976062;28;20030;-61
2022/04/08 05:46:10;;;;;;;0.80;0.80;;;;;;;8.28;nan;97356.53;4965986;28;20529;-62
2022/04/08 05:48:35;;;;;;;2.97;1.30;;;;;;;8.42;nan;97389.34;4974647;28;20035;-61
2022/04/08 05:51:01;;;;;;;1.37;0.90;;;;;;;8.29;nan;97396.53;4974224;28;20038;-60
2022/04/08 05:53:27;;;;;;;1.13;1.00;;;;;;;8.06;nan;97361.44;4976879;28;20479;-60
2022/04/08 05:55:58;;;;;;;2.03;0.83;;;;;;;8.20;nan;97369.53;4976189;28;20035;-61
2022/04/08 05:58:25;;;;;;;0.50;0.50;;;;;;;8.22;nan;97383.09;4973361;28;20053;-61
2022/04/08 06:00:51;;;;;;;0.50;0.50;;;;;;;8.33;nan;97379.41;4973565;28;20061;-61
2022/04/08 06:03:17;;;;;;;2.23;0.60;;;;;;;8.53;nan;97384.78;4976937;28;20039;-62
2022/04/08 06:05:42;;;;;;;0.60;0.60;;;;;;;8.69;nan;97383.41;4974801;28;20492;-61
2022/04/08 06:08:08;;;;;;;0.57;0.57;;;;;;;8.78;nan;97374.63;4972683;28;20084;-61
2022/04/08 06:10:34;;;;;;;1.97;1.47;;;;;;;8.89;nan;97398.94;4974719;28;20513;-61
2022/04/08 06:13:01;;;;;;;3.97;0.70;;;;;;;8.83;nan;97388.06;4974967;28;20046;-63
2022/04/08 06:15:27;;;;;;;0.57;0.53;;;;;;;8.90;nan;97392.94;4973441;28;20141;-61
2022/04/08 06:17:54;;;;;;;4.33;1.80;;;;;;;8.86;nan;97404.16;4971508;28;20035;-61
2022/04/08 06:20:21;;;;;;;2.17;0.77;;;;;;;8.62;nan;97400.63;4974101;28;20081;-61
2022/04/08 06:22:48;;;;;;;0.60;0.60;;;;;;;8.66;nan;97414.13;4974768;28;20062;-61
2022/04/08 06:25:18;;;;;;;0.70;0.53;;;;;;;8.60;nan;97410.06;4974143;28;20469;-61
2022/04/08 06:27:56;;;;;;;1.90;0.60;;;;;;;8.62;nan;97425.34;4973540;28;20045;-61
2022/04/08 06:30:22;;;;;;;1.50;0.80;;;;;;;8.70;nan;97426.78;4976065;28;20129;-61
2022/04/08 06:32:47;;;;;;;0.53;0.50;;;;;;;8.83;nan;97442.56;4975128;28;20030;-61
2022/04/08 06:35:13;;;;;;;1.60;0.80;;;;;;;8.80;nan;97432.44;4972083;28;20144;-61
2022/04/08 06:37:39;;;;;;;0.50;0.50;;;;;;;8.90;nan;97435.56;4971220;28;20041;-61
2022/04/08 06:40:07;;;;;;;0.60;0.60;;;;;;;8.99;nan;97446.34;4976837;28;20389;-61
2022/04/08 06:42:32;;;;;;;1.27;0.80;;;;;;;9.14;nan;97434.75;4974982;28;20504;-61
2022/04/08 06:44:58;;;;;;;3.40;0.80;;;;;;;9.41;nan;97440.69;4971350;28;20473;-59
2022/04/08 06:47:24;;;;;;;1.33;0.50;;;;;;;9.42;nan;97427.03;4971435;28;20031;-61
2022/04/08 06:49:49;;;;;;;1.50;0.50;;;;;;;9.63;nan;97436.53;4974161;28;20034;-60
2022/04/08 06:52:15;;;;;;;1.17;0.60;;;;;;;9.73;nan;97432.75;4974750;28;20031;-62
2022/04/08 06:54:41;;;;;;;0.60;0.60;;;;;;;9.96;nan;97430.22;4973230;28;20544;-60
2022/04/08 06:57:07;;;;;;;0.37;0.30;;;;;;;10.04;nan;97432.50;4972396;28;20793;-60
2022/04/08 06:59:32;;;;;;;1.73;0.77;;;;;;;10.05;nan;97429.91;4975151;28;20114;-60
2022/04/08 07:01:58;;;;;;;1.57;0.50;;;;;;;9.93;nan;97434.63;4973792;28;20026;-61
2022/04/08 07:04:25;;;;;;;1.37;0.50;;;;;;;9.78;nan;97418.06;4971238;28;20035;-61
2022/04/08 07:06:51;;;;;;;0.40;0.40;;;;;;;9.77;nan;97418.94;4972212;28;20027;-61
2022/04/08 07:09:17;;;;;;;0.60;0.60;;;;;;;9.77;nan;97429.19;4974315;28;20613;-60
2022/04/08 07:11:42;;;;;;;0.83;0.60;;;;;;;10.04;nan;97432.50;4972596;28;20034;-63
2022/04/08 07:14:07;;;;;;;0.50;0.50;;;;;;;10.30;nan;97414.50;4971464;28;20034;-61
2022/04/08 07:16:33;;;;;;;0.40;0.40;;;;;;;10.39;nan;97444.06;4974933;28;20029;-60
2022/04/08 07:18:58;;;;;;;1.55;0.60;;;;;;;10.31;nan;97440.94;4973916;28;20145;-60
2022/04/08 07:21:24;;;;;;;1.03;0.60;;;;;;;10.52;nan;97442.72;4974124;28;20034;-60
2022/04/08 07:23:51;;;;;;;0.80;0.60;;;;;;;10.53;nan;97450.31;4971062;28;20054;-61
2022/04/08 07:26:18;;;;;;;0.70;0.65;;;;;;;10.67;nan;97451.53;4973086;28;20045;-61
2022/04/08 07:28:43;;;;;;;0.43;0.43;;;;;;;10.48;nan;97446.28;4973832;28;20027;-61
2022/04/08 07:31:09;;;;;;;0.63;0.50;;;;;;;10.65;nan;97466.94;4972624;28;20038;-60
2022/04/08 07:33:34;;;;;;;2.40;0.60;;;;;;;10.75;nan;97470.00;4970344;28;20799;-61
2022/04/08 07:36:00;;;;;;;0.55;0.55;;;;;;;10.77;nan;97456.25;4974547;28;20093;-62
2022/04/08 07:38:25;;;;;;;0.57;0.57;;;;;;;10.99;nan;97458.78;4974628;28;20452;-61
2022/04/08 07:40:51;;;;;;;0.93;0.70;;;;;;;11.04;nan;97459.44;4971637;28;20431;-61
2022/04/08 07:43:17;;;;;;;4.45;0.88;;;;;;;11.29;nan;97478.09;4969241;28;20073;-62
2022/04/08 07:45:43;;;;;;;1.10;0.70;;;;;;;11.20;nan;97477.66;4974155;28;20058;-62
2022/04/08 07:48:09;;;;;;;1.30;0.68;;;;;;;11.44;nan;97468.97;4974255;28;20449;-61
2022/04/08 07:50:37;;;;;;;1.02;0.95;;;;;;;11.63;nan;97487.81;4970182;28;20452;-62
2022/04/08 07:53:02;;;;;;;1.23;1.13;;;;;;;11.74;nan;97507.97;4979282;28;20037;-62
2022/04/08 07:55:29;;;;;;;0.95;0.90;;;;;;;11.93;nan;97497.72;4973759;28;20415;-60
2022/04/08 07:57:54;;;;;;;0.70;0.70;;;;;;;11.88;nan;97496.19;4969956;28;20042;-60
2022/04/08 08:00:24;;;;;;;0.70;0.70;;;;;;;11.89;nan;97497.03;4969170;28;20038;-61
2022/04/08 08:02:50;;;;;;;2.33;0.98;;;;;;;11.96;nan;97506.16;4971780;28;20045;-61
2022/04/08 08:05:16;;;;;;;0.90;0.90;;;;;;;12.02;nan;97505.88;4973580;28;20039;-61
2022/04/08 08:07:54;;;;;;;2.13;0.70;;;;;;;12.16;nan;97506.16;4971732;28;20023;-61
2022/04/08 08:10:28;;;;;;;2.40;0.70;;;;;;;12.58;nan;97497.44;4968962;28;20043;-60
2022/04/08 08:12:55;;;;;;;1.10;1.00;;;;;;;12.68;nan;97514.13;4972302;28;20035;-61
2022/04/08 08:15:22;;;;;;;2.08;1.10;;;;;;;12.53;nan;97512.22;4972936;28;20049;-60
2022/04/08 08:17:48;;;;;;;6.40;1.05;;;;;;;12.34;nan;97512.22;4978036;28;20907;-60
2022/04/08 08:20:15;;;;;;;1.15;1.10;;;;;;;12.14;nan;97548.19;4970953;28;20034;-60
2022/04/08 08:22:41;;;;;;;3.60;1.02;;;;;;;12.12;nan;97525.16;4971220;28;20054;-60
2022/04/08 08:25:07;;;;;;;3.78;1.13;;;;;;;12.02;nan;97528.16;4972346;28;20512;-60
2022/04/08 08:27:37;;;;;;;1.08;0.90;;;;;;;12.04;nan;97536.66;4969074;28;20039;-61
2022/04/08 08:30:04;;;;;;;1.67;1.25;;;;;;;12.21;nan;97529.91;4970473;28;20036;-60
2022/04/08 08:32:29;;;;;;;6.03;1.27;;;;;;;11.85;nan;97500.63;4972211;28;20608;-60
2022/04/08 08:34:55;;;;;;;0.93;0.90;;;;;;;12.13;nan;97524.28;4973030;28;20047;-61
2022/04/08 08:37:20;;;;;;;1.52;0.90;;;;;;;11.89;nan;97521.00;4971184;28;20038;-60
2022/04/08 08:39:46;;;;;;;3.92;0.90;;;;;;;11.90;nan;97514.13;4968851;28;20058;-61
2022/04/08 08:42:11;;;;;;;1.40;0.98;;;;;;;11.93;nan;97515.72;4971515;28;20034;-60
2022/04/08 08:44:39;;;;;;;3.42;1.20;;;;;;;12.21;nan;97503.38;4972349;28;20894;-61
2022/04/08 08:47:10;;;;;;;1.13;0.90;;;;;;;12.45;nan;97502.28;4970070;28;20050;-60
2022/04/08 08:49:38;;;;;;;2.47;1.10;;;;;;;12.60;nan;97498.22;4970850;28;20038;-59
2022/04/08 08:52:07;;;;;;;3.25;1.80;;;;;;;12.94;nan;97482.06;4973120;28;20066;-60
2022/04/08 08:54:33;;;;;;;3.17;1.45;;;;;;;13.03;nan;97471.31;4971297;28;20033;-61
2022/04/08 08:57:00;;;;;;;1.10;0.95;;;;;;;13.03;nan;97484.19;4969144;28;20168;-60
2022/04/08 08:59:26;;;;;;;1.52;1.20;;;;;;;12.91;nan;97470.16;4975125;28;20046;-61
2022/04/08 09:01:59;;;;;;;3.20;1.38;;;;;;;13.09;nan;97461.56;4976952;28;20035;-62
2022/04/08 09:04:26;;;;;;;1.98;1.10;;;;;;;12.78;nan;97474.19;4975988;28;20035;-61
2022/04/08 09:06:51;;;;;;;2.80;1.80;;;;;;;12.53;nan;97456.50;4972546;28;20031;-60
2022/04/08 09:09:27;;;;;;;2.45;1.38;;;;;;;12.66;nan;97449.06;4975279;28;20041;-61
2022/04/08 09:11:53;;;;;;;1.58;1.20;;;;;;;12.56;nan;97445.25;4976453;28;20041;-60
2022/04/08 09:14:26;;;;;;;1.02;0.90;;;;;;;12.66;nan;97461.91;4973855;28;20552;-61
2022/04/08 09:17:00;;;;;;;1.85;0.90;;;;;;;12.42;nan;97466.44;4972604;28;20457;-61
2022/04/08 09:19:26;;;;;;;1.00;0.90;;;;;;;12.43;nan;97469.84;4976109;28;20138;-60
2022/04/08 09:21:52;;;;;;;1.40;0.82;;;;;;;12.44;nan;97482.63;4975830;28;20517;-60
2022/04/08 09:24:21;;;;;;;2.10;1.10;;;;;;;12.57;nan;97475.19;4972905;28;20054;-64
2022/04/08 09:26:51;;;;;;;1.25;0.90;;;;;;;12.39;nan;97473.47;4972774;28;20034;-61
2022/04/08 09:29:19;;;;;;;1.30;0.80;;;;;;;12.27;nan;97467.13;4975228;28;20074;-61
2022/04/08 09:31:48;;;;;;;2.58;1.13;;;;;;;12.41;nan;97476.78;4974332;28;20066;-61
2022/04/08 09:34:16;;;;;;;2.22;2.03;;;;;;;12.48;nan;97460.16;4973103;28;20039;-61
2022/04/08 09:36:42;;;;;;;0.80;0.80;;;;;;;12.63;nan;97469.78;4973927;28;20034;-62
2022/04/08 09:39:10;;;;;;;3.03;1.15;;;;;;;12.50;nan;97448.09;4990632;28;20162;-61
2022/04/08 09:41:40;;;;;;;1.65;1.00;;;;;;;12.97;nan;97453.63;4975110;28;20035;-61
2022/04/08 09:44:11;;;;;;;1.27;0.90;;;;;;;12.92;nan;97427.25;4972382;28;20462;-60
2022/04/08 09:46:36;;;;;;;1.75;0.90;;;;;;;13.13;nan;97441.72;4973014;28;20030;-61
2022/04/08 09:49:06;;;;;;;0.90;0.90;;;;;;;13.11;nan;97456.41;4975125;28;20465;-63
2022/04/08 09:51:39;;;;;;;0.80;0.80;;;;;;;13.07;nan;97429.13;4973244;28;20038;-60
2022/04/08 09:54:14;;;;;;;2.63;1.58;;;;;;;13.21;nan;97447.31;4972571;28;20035;-60
2022/04/08 09:56:43;;;;;;;0.93;0.93;;;;;;;13.31;nan;97430.53;4973517;28;20121;-60
2022/04/08 09:59:15;;;;;;;1.25;1.05;;;;;;;13.43;nan;97434.22;4975182;28;20507;-59
2022/04/08 10:01:44;;;;;;;2.03;0.70;;;;;;;13.66;nan;97436.50;4971625;28;20030;-59
2022/04/08 10:04:10;;;;;;;1.55;0.93;;;;;;;13.79;nan;97419.50;4972583;28;20068;-61
2022/04/08 10:06:37;;;;;;;0.65;0.65;;;;;;;13.92;nan;97430.84;4974723;28;20129;-59
2022/04/08 10:09:05;;;;;;;0.70;0.70;;;;;;;13.96;nan;97414.31;4975365;28;20042;-60
2022/04/08 10:11:58;;;;;;;1.00;1.00;;;;;;;14.24;nan;97395.66;4970582;28;20030;-60
2022/04/08 10:14:44;;;;;;;1.30;0.98;;;;;;;14.58;nan;97408.44;4972294;28;20041;-60
2022/04/08 10:17:10;;;;;;;1.38;0.88;;;;;;;14.30;nan;97409.97;4975284;28;20894;-59
2022/04/08 10:19:36;;;;;;;1.23;0.90;;;;;;;14.57;nan;97388.72;4974108;28;20050;-61
2022/04/08 10:22:02;;;;;;;1.17;0.90;;;;;;;14.11;nan;97361.13;4972214;28;20034;-62
2022/04/08 10:24:30;;;;;;;0.80;0.80;;;;;;;14.27;nan;97372.28;4972648;28;20055;-60
2022/04/08 10:27:17;;;;;;;1.13;0.80;;;;;;;14.20;nan;97358.06;4974112;28;20035;-61
2022/04/08 10:29:54;;;;;;;0.98;0.90;;;;;;;14.39;nan;97365.66;4972129;28;20612;-59
2022/04/08 10:32:21;;;;;;;0.93;0.90;;;;;;;14.31;nan;97378.94;4972030;28;20049;-59
2022/04/08 10:34:47;;;;;;;0.70;0.70;;;;;;;14.38;nan;97358.84;4974531;28;20543;-61
2022/04/08 10:37:16;;;;;;;2.20;0.93;;;;;;;14.53;nan;97378.63;4976542;28;20042;-58
2022/04/08 10:39:42;;;;;;;0.95;0.95;;;;;;;14.22;nan;97370.84;4973891;28;20045;-60
2022/04/08 10:42:20;;;;;;;0.80;0.80;;;;;;;14.28;nan;97357.66;4973663;28;20109;-60
2022/04/08 10:44:45;;;;;;;0.90;0.90;;;;;;;14.72;nan;97370.72;4977541;28;20706;-63
2022/04/08 10:47:10;;;;;;;0.93;0.90;;;;;;;15.00;nan;97363.09;4975304;28;20526;-61
2022/04/08 10:49:54;;;;;;;0.80;0.80;;;;;;;14.94;nan;97347.94;4968894;28;20066;-61
2022/04/08 10:52:24;;;;;;;0.80;0.80;;;;;;;15.05;nan;97353.34;4971541;28;20559;-61
2022/04/08 10:54:51;;;;;;;0.80;0.80;;;;;;;15.28;nan;97344.25;4974001;28;20030;-61
2022/04/08 10:57:54;;;;;;;1.58;1.08;;;;;;;15.14;nan;97345.06;4971165;28;20433;-61
2022/04/08 11:00:19;;;;;;;0.77;0.70;;;;;;;15.43;nan;97333.88;4962358;28;20142;-61
2022/04/08 11:02:48;;;;;;;0.80;0.80;;;;;;;15.19;nan;97309.47;4973856;28;20045;-60
2022/04/08 11:05:16;;;;;;;1.10;1.00;;;;;;;15.68;nan;97322.94;4974137;28;20026;-61
2022/04/08 11:07:46;;;;;;;0.70;0.70;;;;;;;15.88;nan;97332.03;4969766;28;20447;-61
2022/04/08 11:10:18;;;;;;;1.17;1.17;;;;;;;15.94;nan;97319.59;4969853;28;20384;-61
2022/04/08 11:12:51;;;;;;;1.58;1.00;;;;;;;16.46;nan;97317.16;4973805;28;20699;-61
2022/04/08 11:15:27;;;;;;;1.13;1.13;;;;;;;16.65;nan;97301.31;4973569;28;20077;-61
2022/04/08 11:17:53;;;;;;;1.20;1.20;;;;;;;16.11;nan;97286.69;4970064;28;20045;-61
2022/04/08 11:20:21;;;;;;;0.93;0.93;;;;;;;16.34;nan;97276.53;4970402;28;20576;-61
2022/04/08 11:22:52;;;;;;;1.00;1.00;;;;;;;16.51;nan;97278.03;4972959;28;20452;-61
2022/04/08 11:25:28;;;;;;;4.40;2.50;;;;;;;16.80;nan;97263.28;4971832;28;20069;-60
2022/04/08 11:28:01;;;;;;;3.90;1.88;;;;;;;16.76;nan;97290.28;4971384;28;20034;-60
2022/04/08 11:30:27;;;;;;;1.92;1.83;;;;;;;16.83;nan;97278.59;4973221;28;20050;-60
2022/04/08 11:32:52;;;;;;;1.92;1.83;;;;;;;17.04;nan;97282.34;4972958;28;20073;-61
2022/04/08 11:35:18;;;;;;;3.42;2.03;;;;;;;17.26;nan;97271.38;4970961;28;20022;-60
2022/04/08 11:37:44;;;;;;;2.00;1.90;;;;;;;17.59;nan;97281.25;4970298;28;20536;-61
2022/04/08 11:40:16;;;;;;;2.33;2.20;;;;;;;17.76;nan;97276.56;4975200;28;20026;-61
2022/04/08 11:42:42;;;;;;;1.77;1.65;;;;;;;17.65;nan;97250.53;4971516;28;20034;-62
2022/04/08 11:45:09;;;;;;;2.05;1.88;;;;;;;17.68;nan;97259.88;4970362;28;20037;-61
2022/04/08 11:47:39;;;;;;;1.90;1.80;;;;;;;17.73;nan;97247.44;4970133;28;20045;-60
2022/04/08 11:50:07;;;;;;;1.98;1.88;;;;;;;17.70;nan;97250.22;4973493;28;20061;-60
2022/04/08 11:52:33;;;;;;;1.48;1.48;;;;;;;18.11;nan;97249.91;4972997;28;20038;-60